Time;durP1;ratioP1;P1;durP2;ratioP2;P2;SDS_P1;SDS_P2;PMS_P1;PMS_P2;Temp;Humidity;BMP_temperature;BMP_pressure;BME280_temperature;BME280_humidity;BME280_pressure;Samples;Min_cycle;Max_cycle;Signal;HPM_P1;HPM_P2
2022/07/08 00:04:39;;;;;;;0.65;0.30;;;14.60;99.90;;;;;;5030990;22;20507;-73
2022/07/08 00:07:43;;;;;;;5.70;0.60;;;14.60;99.90;;;;;;5040917;28;20108;-73
2022/07/08 00:10:46;;;;;;;1.63;0.65;;;14.60;99.90;;;;;;5024744;28;20046;-73
2022/07/08 00:13:49;;;;;;;2.55;0.35;;;14.50;99.90;;;;;;5019250;28;20104;-73
2022/07/08 00:16:53;;;;;;;3.60;0.60;;;14.50;99.90;;;;;;5042977;28;20042;-73
2022/07/08 00:19:58;;;;;;;0.80;0.68;;;14.50;99.90;;;;;;5025254;28;20046;-72
2022/07/08 00:23:02;;;;;;;0.75;0.30;;;14.50;99.90;;;;;;5012264;28;20052;-73
2022/07/08 00:26:05;;;;;;;0.88;0.60;;;14.50;99.90;;;;;;5029321;28;20045;-73
2022/07/08 00:29:08;;;;;;;0.95;0.60;;;14.50;99.90;;;;;;5028897;28;20507;-73
2022/07/08 00:32:12;;;;;;;0.40;0.32;;;14.50;99.90;;;;;;5028212;28;20045;-73
2022/07/08 00:35:15;;;;;;;0.88;0.20;;;14.50;99.90;;;;;;5023249;28;20491;-73
2022/07/08 00:38:18;;;;;;;2.92;0.60;;;14.50;99.90;;;;;;5028387;28;20072;-73
2022/07/08 00:41:22;;;;;;;1.40;0.40;;;14.50;99.90;;;;;;5017729;28;20533;-73
2022/07/08 00:44:25;;;;;;;2.60;0.30;;;14.40;99.90;;;;;;5021794;28;20041;-72
2022/07/08 00:47:28;;;;;;;1.60;0.40;;;14.40;99.90;;;;;;5028408;28;20487;-73
2022/07/08 00:50:33;;;;;;;1.95;0.40;;;14.40;99.90;;;;;;5028958;28;20037;-73
2022/07/08 00:53:38;;;;;;;1.77;0.50;;;14.40;99.90;;;;;;5026772;28;20049;-73
2022/07/08 00:56:42;;;;;;;0.90;0.30;;;14.40;99.90;;;;;;5029274;28;20064;-73
2022/07/08 00:59:45;;;;;;;0.68;0.30;;;14.30;99.90;;;;;;5028245;28;20041;-73
2022/07/08 01:02:50;;;;;;;3.15;0.52;;;14.30;99.90;;;;;;5011780;28;20045;-73
2022/07/08 01:05:54;;;;;;;0.63;0.40;;;14.30;99.90;;;;;;5023691;28;20547;-73
2022/07/08 01:08:57;;;;;;;2.60;0.38;;;14.30;99.90;;;;;;5028045;28;20072;-73
2022/07/08 01:12:00;;;;;;;1.33;0.40;;;14.30;99.90;;;;;;5027730;28;20631;-73
2022/07/08 01:15:03;;;;;;;5.60;0.63;;;14.30;99.90;;;;;;5027074;28;20124;-73
2022/07/08 01:18:07;;;;;;;3.10;0.50;;;14.20;99.90;;;;;;5010566;28;20046;-73
2022/07/08 01:21:10;;;;;;;1.23;0.65;;;14.20;99.90;;;;;;5022535;28;20103;-73
2022/07/08 01:24:13;;;;;;;0.60;0.30;;;14.10;99.90;;;;;;5027399;28;20033;-73
2022/07/08 01:27:18;;;;;;;1.08;0.40;;;14.10;99.90;;;;;;5026704;28;20044;-73
2022/07/08 01:30:22;;;;;;;1.27;0.38;;;14.10;99.90;;;;;;5011267;28;20394;-73
2022/07/08 01:33:25;;;;;;;0.75;0.30;;;14.00;99.90;;;;;;5027574;28;20128;-73
2022/07/08 01:36:28;;;;;;;2.55;0.65;;;14.00;99.90;;;;;;5016650;28;20065;-73
2022/07/08 01:39:31;;;;;;;1.33;0.40;;;13.90;99.90;;;;;;5043929;28;20091;-73
2022/07/08 01:42:35;;;;;;;2.55;0.63;;;13.80;99.90;;;;;;5040805;28;20052;-73
2022/07/08 01:45:41;;;;;;;0.95;0.50;;;13.80;99.90;;;;;;5018907;28;20057;-73
2022/07/08 01:48:44;;;;;;;1.00;0.28;;;13.80;99.90;;;;;;5024698;28;20400;-73
2022/07/08 01:51:47;;;;;;;0.52;0.40;;;13.70;99.90;;;;;;5024424;28;20091;-73
2022/07/08 01:54:51;;;;;;;1.50;0.40;;;13.70;99.90;;;;;;5027040;28;20056;-73
2022/07/08 01:57:54;;;;;;;1.10;0.63;;;13.60;99.90;;;;;;5025232;28;20081;-73
2022/07/08 02:00:57;;;;;;;1.52;0.40;;;13.60;99.90;;;;;;5026154;28;20056;-73
2022/07/08 02:04:01;;;;;;;1.77;0.30;;;13.50;99.90;;;;;;5023836;28;20081;-73
2022/07/08 02:07:04;;;;;;;1.15;0.43;;;13.50;99.90;;;;;;5041895;28;20537;-73
2022/07/08 02:10:07;;;;;;;4.47;0.80;;;13.50;99.90;;;;;;5042788;28;20077;-73
2022/07/08 02:13:11;;;;;;;0.50;0.40;;;13.40;99.90;;;;;;5024946;28;20033;-72
2022/07/08 02:16:14;;;;;;;0.68;0.30;;;13.40;99.90;;;;;;5044492;28;20033;-73
2022/07/08 02:19:18;;;;;;;1.20;0.47;;;13.40;99.90;;;;;;5027146;28;20061;-73
2022/07/08 02:22:21;;;;;;;2.45;0.52;;;13.40;99.90;;;;;;5027232;28;20091;-73
2022/07/08 02:25:24;;;;;;;0.93;0.30;;;13.30;99.90;;;;;;5011549;28;20538;-73
2022/07/08 02:28:28;;;;;;;1.05;0.50;;;13.30;99.90;;;;;;5037702;28;20037;-73
2022/07/08 02:31:31;;;;;;;1.10;0.45;;;13.30;99.90;;;;;;5023817;28;20091;-73
2022/07/08 02:34:36;;;;;;;0.98;0.40;;;13.30;99.90;;;;;;5026643;28;20077;-73
2022/07/08 02:37:39;;;;;;;0.65;0.30;;;13.30;99.90;;;;;;5024804;28;20047;-73
2022/07/08 02:40:43;;;;;;;1.10;0.40;;;13.20;99.90;;;;;;5010887;28;20045;-72
2022/07/08 02:43:46;;;;;;;1.13;0.40;;;13.20;99.90;;;;;;5024345;28;20460;-73
2022/07/08 02:46:49;;;;;;;1.02;0.47;;;13.10;99.90;;;;;;5026489;28;20060;-73
2022/07/08 02:49:53;;;;;;;1.02;0.50;;;13.10;99.90;;;;;;5027037;28;20045;-73
2022/07/08 02:52:56;;;;;;;3.35;0.60;;;13.10;99.90;;;;;;5042707;28;20037;-73
2022/07/08 02:55:59;;;;;;;1.30;0.63;;;13.10;99.90;;;;;;5022951;28;20030;-73
2022/07/08 02:59:02;;;;;;;3.75;0.73;;;13.10;99.90;;;;;;5010582;28;20042;-72
2022/07/08 03:02:06;;;;;;;1.20;0.40;;;13.10;99.90;;;;;;5015197;28;20041;-73
2022/07/08 03:05:10;;;;;;;3.95;0.63;;;13.10;99.90;;;;;;5042336;28;20446;-73
2022/07/08 03:07:39;;;;;;;1.65;0.63;;;13.10;99.90;;;;;;5023109;28;20434;-73
2022/07/08 03:10:07;;;;;;;1.40;0.50;;;13.10;99.90;;;;;;5043022;28;20045;-73
2022/07/08 03:12:33;;;;;;;1.17;0.50;;;13.10;99.90;;;;;;5041161;28;20120;-73
2022/07/08 03:14:58;;;;;;;1.55;0.65;;;13.10;99.90;;;;;;5026767;28;20124;-73
2022/07/08 03:17:24;;;;;;;1.23;0.52;;;13.10;99.90;;;;;;5026297;28;20099;-73
2022/07/08 03:19:51;;;;;;;1.92;0.70;;;13.10;99.90;;;;;;5026396;28;20056;-73
2022/07/08 03:22:18;;;;;;;1.38;0.80;;;13.00;99.90;;;;;;5024885;28;20060;-73
2022/07/08 03:24:44;;;;;;;1.27;0.70;;;13.10;99.90;;;;;;5027009;28;20038;-72
2022/07/08 03:27:10;;;;;;;0.93;0.60;;;13.00;99.90;;;;;;5026231;28;20068;-73
2022/07/08 03:29:35;;;;;;;1.10;0.65;;;13.00;99.90;;;;;;5043624;28;20099;-73
2022/07/08 03:32:03;;;;;;;1.98;0.88;;;13.00;99.90;;;;;;5024843;28;20049;-73
2022/07/08 03:34:28;;;;;;;0.77;0.52;;;13.00;99.90;;;;;;5024883;28;20033;-72
2022/07/08 03:36:54;;;;;;;7.85;1.23;;;13.00;99.90;;;;;;5026945;28;20049;-73
2022/07/08 03:39:21;;;;;;;4.10;0.60;;;12.90;99.90;;;;;;5043719;28;20041;-73
2022/07/08 03:41:47;;;;;;;2.65;0.90;;;12.90;99.90;;;;;;5019778;28;20115;-73
2022/07/08 03:44:12;;;;;;;2.05;0.80;;;12.90;99.90;;;;;;5028230;28;21828;-73
2022/07/08 03:46:41;;;;;;;6.25;0.80;;;12.90;99.90;;;;;;5039608;28;20495;-72
2022/07/08 03:49:07;;;;;;;1.73;0.68;;;12.80;99.90;;;;;;5011474;28;20070;-73
2022/07/08 03:51:33;;;;;;;2.53;0.57;;;12.80;99.90;;;;;;5041054;28;20041;-72
2022/07/08 03:53:59;;;;;;;0.82;0.40;;;12.80;99.90;;;;;;5024920;28;20058;-73
2022/07/08 03:56:25;;;;;;;2.75;0.80;;;12.80;99.90;;;;;;5039812;28;20049;-73
2022/07/08 03:58:50;;;;;;;4.93;0.80;;;12.70;99.90;;;;;;5029405;28;20458;-73
2022/07/08 04:01:16;;;;;;;1.45;0.60;;;12.80;99.90;;;;;;5044208;28;20034;-73
2022/07/08 04:03:44;;;;;;;1.33;0.68;;;12.70;99.90;;;;;;5030019;28;20046;-73
2022/07/08 04:06:47;;;;;;;1.73;0.55;;;12.70;99.90;;;;;;5029239;28;20065;-73
2022/07/08 04:09:50;;;;;;;0.65;0.40;;;12.70;99.90;;;;;;5012434;28;20569;-73
2022/07/08 04:12:53;;;;;;;6.70;0.80;;;12.80;99.90;;;;;;5009758;28;20048;-72
2022/07/08 04:15:58;;;;;;;0.75;0.40;;;12.80;99.90;;;;;;5026463;28;20077;-73
2022/07/08 04:19:03;;;;;;;1.95;0.60;;;12.90;99.90;;;;;;5043322;28;20034;-73
2022/07/08 04:22:06;;;;;;;2.92;0.65;;;12.90;99.90;;;;;;5039099;28;20124;-72
2022/07/08 04:25:09;;;;;;;1.42;0.52;;;12.90;99.90;;;;;;5012577;28;20041;-73
2022/07/08 04:28:12;;;;;;;1.63;0.68;;;12.90;99.90;;;;;;5028994;28;20049;-72
2022/07/08 04:31:16;;;;;;;7.13;0.50;;;13.00;99.90;;;;;;5027306;28;20107;-73
2022/07/08 04:34:21;;;;;;;2.78;0.88;;;13.10;99.90;;;;;;5027472;28;20045;-73
2022/07/08 04:37:24;;;;;;;1.25;0.50;;;13.20;99.90;;;;;;5026619;28;20045;-73
2022/07/08 04:40:28;;;;;;;2.40;0.63;;;13.30;99.90;;;;;;5045437;28;20042;-72
2022/07/08 04:43:31;;;;;;;5.72;0.90;;;13.30;99.90;;;;;;5027559;28;20037;-72
2022/07/08 04:46:34;;;;;;;0.60;0.40;;;13.40;99.90;;;;;;5028992;28;20069;-73
2022/07/08 04:49:38;;;;;;;3.55;0.90;;;13.50;99.90;;;;;;5028028;28;20041;-73
2022/07/08 04:52:41;;;;;;;1.73;0.55;;;13.50;99.90;;;;;;5022544;28;20042;-73
2022/07/08 04:55:44;;;;;;;2.15;0.60;;;13.60;99.90;;;;;;5029945;28;20041;-73
2022/07/08 04:58:47;;;;;;;0.57;0.30;;;13.60;99.90;;;;;;5028272;28;20041;-73
2022/07/08 05:01:50;;;;;;;1.13;0.55;;;13.60;99.90;;;;;;5022512;28;20176;-73
2022/07/08 05:04:54;;;;;;;2.45;0.77;;;13.60;99.90;;;;;;5029015;28;20557;-73
2022/07/08 05:07:57;;;;;;;2.25;0.57;;;13.70;99.90;;;;;;5026717;28;20103;-73
2022/07/08 05:11:00;;;;;;;0.93;0.50;;;13.70;99.90;;;;;;5025830;28;20049;-73
2022/07/08 05:14:05;;;;;;;2.63;0.73;;;13.80;99.90;;;;;;5009019;28;20100;-73
2022/07/08 05:17:08;;;;;;;1.50;0.50;;;13.80;99.90;;;;;;5013303;28;20414;-73
2022/07/08 05:20:11;;;;;;;3.90;0.80;;;13.90;99.90;;;;;;5028230;28;20041;-73
2022/07/08 05:23:16;;;;;;;0.98;0.40;;;14.00;99.90;;;;;;5036323;28;20073;-73
2022/07/08 05:26:19;;;;;;;1.02;0.60;;;14.00;99.90;;;;;;5028528;28;20075;-73
2022/07/08 05:29:22;;;;;;;1.55;0.57;;;14.10;99.90;;;;;;5027359;28;20112;-73
2022/07/08 05:32:25;;;;;;;0.77;0.50;;;14.20;99.90;;;;;;5023546;28;20038;-73
2022/07/08 05:35:28;;;;;;;1.10;0.60;;;14.30;99.90;;;;;;5027010;28;20071;-73
2022/07/08 05:38:32;;;;;;;2.75;0.50;;;14.40;99.90;;;;;;5019179;28;20048;-73
2022/07/08 05:41:35;;;;;;;1.88;0.63;;;14.50;99.90;;;;;;5041770;28;20380;-73
2022/07/08 05:44:38;;;;;;;1.65;0.65;;;14.60;99.90;;;;;;5013040;28;20072;-79
2022/07/08 05:47:42;;;;;;;1.05;0.40;;;14.60;99.90;;;;;;5026801;28;20040;-73
2022/07/08 05:50:45;;;;;;;0.88;0.50;;;14.70;99.90;;;;;;5028014;28;20048;-73
2022/07/08 05:53:48;;;;;;;1.38;0.55;;;14.70;99.90;;;;;;5025474;28;20403;-73
2022/07/08 05:56:53;;;;;;;1.10;0.50;;;14.70;99.90;;;;;;5011044;28;20076;-73
2022/07/08 05:59:57;;;;;;;3.10;1.05;;;14.70;99.90;;;;;;5032060;28;20085;-73
2022/07/08 06:03:00;;;;;;;2.03;0.95;;;14.70;99.90;;;;;;5024697;28;20045;-74
2022/07/08 06:06:04;;;;;;;1.88;0.60;;;14.80;99.90;;;;;;5027847;28;20091;-74
2022/07/08 06:09:07;;;;;;;1.13;0.50;;;14.80;99.90;;;;;;5024039;28;20077;-73
2022/07/08 06:11:36;;;;;;;3.08;0.50;;;14.90;99.90;;;;;;5024969;28;20124;-74
2022/07/08 06:14:05;;;;;;;2.38;0.60;;;14.90;99.90;;;;;;5018411;28;20049;-73
2022/07/08 06:16:32;;;;;;;1.52;0.70;;;14.90;99.90;;;;;;5010537;28;20045;-73
2022/07/08 06:18:58;;;;;;;6.05;1.00;;;15.00;99.90;;;;;;5041691;28;20499;-73
2022/07/08 06:21:23;;;;;;;3.30;0.70;;;15.10;99.90;;;;;;5023645;28;20037;-73
2022/07/08 06:23:53;;;;;;;2.00;0.60;;;15.30;99.90;;;;;;5023062;28;20081;-73
2022/07/08 06:26:22;;;;;;;0.88;0.47;;;15.50;99.90;;;;;;5043111;28;20042;-73
2022/07/08 06:28:52;;;;;;;6.25;1.15;;;15.70;99.90;;;;;;5024925;28;20067;-74
2022/07/08 06:31:22;;;;;;;1.85;0.52;;;15.80;99.90;;;;;;5027526;28;20058;-74
2022/07/08 06:33:56;;;;;;;1.70;0.60;;;15.80;99.90;;;;;;5025940;28;20041;-74
2022/07/08 06:36:23;;;;;;;1.52;0.50;;;15.80;99.90;;;;;;5043556;28;20055;-74
2022/07/08 06:38:48;;;;;;;1.38;0.22;;;15.80;99.90;;;;;;5040525;28;20045;-73
2022/07/08 06:41:19;;;;;;;1.38;0.40;;;15.80;99.90;;;;;;5026685;28;20046;-73
2022/07/08 06:43:52;;;;;;;1.20;0.40;;;15.90;99.90;;;;;;5021206;28;20037;-73
2022/07/08 06:46:21;;;;;;;0.47;0.30;;;15.90;99.90;;;;;;5026769;28;20069;-72
2022/07/08 06:48:51;;;;;;;1.55;0.35;;;16.00;99.90;;;;;;5024585;28;20507;-73
2022/07/08 06:51:17;;;;;;;3.72;0.60;;;16.00;99.90;;;;;;5020931;28;20046;-75
2022/07/08 06:56:26;;;;;;;0.25;0.20;;;16.00;99.90;;;;;;5025737;28;20045;-73
2022/07/08 06:58:54;;;;;;;0.93;0.40;;;16.00;99.90;;;;;;5023988;28;20111;-72
2022/07/08 07:01:19;;;;;;;2.55;0.88;;;16.10;99.90;;;;;;5025684;28;20525;-74
2022/07/08 07:03:45;;;;;;;4.47;0.80;;;16.10;99.90;;;;;;5114698;22;20053;-76
2022/07/08 07:06:48;;;;;;;0.88;0.40;;;16.20;99.90;;;;;;5040915;28;20424;-78
2022/07/08 07:13:33;;;;;;;1.42;0.70;;;16.30;99.90;;;;;;5041038;28;20039;-75
2022/07/08 07:16:36;;;;;;;0.98;0.50;;;16.40;99.90;;;;;;5043681;28;20037;-73
2022/07/08 07:19:39;;;;;;;0.63;0.38;;;16.50;99.90;;;;;;5043499;28;20128;-74
2022/07/08 07:22:43;;;;;;;1.83;0.47;;;16.60;99.90;;;;;;5031802;28;20076;-74
2022/07/08 07:25:46;;;;;;;1.70;0.50;;;16.70;99.90;;;;;;5038284;28;20119;-75
2022/07/08 07:28:49;;;;;;;1.05;0.55;;;16.80;99.90;;;;;;5043783;28;20033;-76
2022/07/08 07:31:53;;;;;;;2.13;0.63;;;16.80;99.90;;;;;;5045379;28;20099;-74
2022/07/08 07:34:56;;;;;;;1.20;0.60;;;16.80;99.90;;;;;;5045388;28;20033;-75
2022/07/08 07:37:59;;;;;;;2.08;0.43;;;16.80;99.90;;;;;;5029685;28;20341;-75
2022/07/08 07:41:02;;;;;;;1.83;0.63;;;16.80;99.90;;;;;;5049111;28;20095;-76
2022/07/08 07:44:06;;;;;;;1.60;0.60;;;16.80;99.90;;;;;;5034894;28;20607;-75
2022/07/08 07:47:09;;;;;;;1.02;0.52;;;16.90;99.90;;;;;;5046444;28;20444;-75
2022/07/08 07:50:12;;;;;;;0.93;0.45;;;16.90;99.90;;;;;;5045103;28;20460;-75
2022/07/08 07:53:17;;;;;;;0.47;0.30;;;16.90;99.90;;;;;;5044921;28;20045;-75
2022/07/08 07:56:20;;;;;;;0.70;0.50;;;17.00;99.90;;;;;;5048389;28;20040;-75
2022/07/08 07:59:24;;;;;;;1.00;0.45;;;17.10;99.90;;;;;;5027973;28;20090;-76
2022/07/08 08:02:27;;;;;;;2.47;0.60;;;17.10;99.90;;;;;;5017698;28;20048;-77
2022/07/08 08:05:30;;;;;;;0.98;0.40;;;17.00;99.90;;;;;;5043948;28;20189;-79
2022/07/08 08:07:56;;;;;;;1.55;0.40;;;17.00;99.90;;;;;;5032254;28;20558;-77
2022/07/08 08:10:24;;;;;;;0.88;0.50;;;17.00;99.90;;;;;;5047200;28;20328;-78
2022/07/08 08:12:50;;;;;;;1.20;0.50;;;17.00;99.90;;;;;;5044054;28;20446;-77
2022/07/08 08:15:16;;;;;;;1.60;0.45;;;17.00;99.90;;;;;;5048599;28;20059;-78
2022/07/08 08:17:42;;;;;;;1.98;0.52;;;17.00;99.90;;;;;;5032390;28;20124;-75
2022/07/08 08:20:12;;;;;;;1.38;0.60;;;17.00;99.90;;;;;;5045351;28;20041;-76
2022/07/08 08:22:38;;;;;;;2.85;0.60;;;17.00;99.90;;;;;;5043781;28;20414;-76
2022/07/08 08:25:42;;;;;;;2.83;0.57;;;17.20;99.90;;;;;;5037896;28;20037;-76
2022/07/08 08:28:45;;;;;;;1.63;0.47;;;17.20;99.90;;;;;;5029149;28;20045;-75
2022/07/08 08:31:48;;;;;;;1.88;0.73;;;17.30;99.90;;;;;;5046940;28;20114;-75
2022/07/08 08:34:52;;;;;;;5.43;0.60;;;17.30;99.90;;;;;;5063033;28;20106;-76
2022/07/08 08:37:55;;;;;;;1.33;0.40;;;17.40;99.90;;;;;;5063593;28;20040;-75
2022/07/08 08:41:01;;;;;;;1.48;0.63;;;17.40;99.90;;;;;;5035023;28;20106;-76
2022/07/08 08:44:05;;;;;;;0.90;0.50;;;17.50;99.90;;;;;;5021595;28;20520;-75
2022/07/08 08:47:08;;;;;;;2.47;0.50;;;17.60;99.90;;;;;;5026854;28;20040;-76
2022/07/08 08:53:37;;;;;;;3.08;0.50;;;17.60;99.90;;;;;;5046025;28;20029;-76
2022/07/08 08:56:40;;;;;;;0.95;0.30;;;17.70;99.90;;;;;;5062746;28;20059;-75
2022/07/08 08:59:44;;;;;;;2.08;0.55;;;17.80;99.90;;;;;;5040257;28;20055;-75
2022/07/08 09:02:47;;;;;;;5.80;0.80;;;17.90;99.90;;;;;;5047957;28;20036;-76
2022/07/08 09:05:50;;;;;;;1.50;0.60;;;17.90;99.90;;;;;;5045547;28;20045;-76
2022/07/08 09:08:54;;;;;;;3.80;0.90;;;17.90;99.90;;;;;;5018997;28;20037;-76
2022/07/08 09:11:57;;;;;;;0.60;0.43;;;18.00;99.90;;;;;;5046735;28;20034;-76
2022/07/08 09:15:02;;;;;;;4.20;0.50;;;18.00;99.90;;;;;;5061898;28;20474;-76
2022/07/08 09:18:05;;;;;;;1.25;0.60;;;18.10;99.90;;;;;;5044293;28;20038;-76
2022/07/08 09:21:10;;;;;;;1.83;0.60;;;18.10;99.90;;;;;;5058012;28;20132;-75
2022/07/08 09:24:13;;;;;;;1.02;0.40;;;18.10;99.90;;;;;;5044293;28;20048;-75
2022/07/08 09:27:16;;;;;;;0.43;0.38;;;18.20;99.90;;;;;;5027159;28;20041;-75
2022/07/08 09:30:20;;;;;;;1.38;0.60;;;18.20;99.90;;;;;;5028594;28;20042;-78
2022/07/08 09:33:26;;;;;;;2.22;0.90;;;18.20;99.90;;;;;;5028932;28;20033;-78
2022/07/08 09:36:29;;;;;;;1.38;0.65;;;18.30;99.90;;;;;;5046038;28;20052;-78
2022/07/08 09:39:32;;;;;;;0.63;0.40;;;18.30;99.90;;;;;;5040890;28;20502;-77
2022/07/08 09:42:35;;;;;;;1.75;0.60;;;18.40;99.90;;;;;;5044693;28;20162;-77
2022/07/08 09:45:39;;;;;;;1.45;0.43;;;18.40;99.90;;;;;;5030288;28;20044;-78
2022/07/08 09:48:42;;;;;;;1.15;0.50;;;18.50;99.90;;;;;;5035240;28;20037;-78
2022/07/08 09:51:47;;;;;;;0.82;0.45;;;18.60;99.90;;;;;;5045758;28;20577;-78
2022/07/08 09:54:53;;;;;;;2.00;0.60;;;18.60;99.90;;;;;;5047451;28;20048;-78
2022/07/08 09:57:58;;;;;;;1.35;0.73;;;18.70;99.90;;;;;;5044899;28;20091;-84
2022/07/08 10:01:01;;;;;;;2.50;0.77;;;18.70;99.90;;;;;;5045977;28;20077;-79
2022/07/08 10:04:05;;;;;;;1.08;0.50;;;18.60;99.90;;;;;;5012083;28;20059;-77
2022/07/08 10:07:08;;;;;;;3.15;0.70;;;18.60;99.90;;;;;;5061247;28;20061;-78
2022/07/08 10:10:12;;;;;;;3.55;0.90;;;18.60;99.90;;;;;;5043967;28;20206;-75
2022/07/08 10:13:16;;;;;;;2.92;0.77;;;18.60;99.90;;;;;;5020017;28;20037;-78
2022/07/08 10:16:19;;;;;;;1.80;0.52;;;18.60;99.90;;;;;;5029314;28;20098;-78
2022/07/08 10:19:23;;;;;;;1.98;0.65;;;18.60;99.90;;;;;;5028269;28;20064;-78
2022/07/08 10:22:26;;;;;;;1.73;0.82;;;18.60;99.90;;;;;;5042696;28;20086;-78
2022/07/08 10:25:30;;;;;;;0.93;0.50;;;18.60;99.90;;;;;;5046929;28;20051;-78
2022/07/08 10:28:34;;;;;;;6.63;0.95;;;18.70;99.90;;;;;;5030168;28;20075;-78
2022/07/08 10:31:37;;;;;;;3.10;0.82;;;18.80;99.90;;;;;;5040114;28;20499;-77
2022/07/08 10:34:40;;;;;;;1.15;0.65;;;18.80;99.90;;;;;;5018864;28;20083;-78
2022/07/08 10:37:44;;;;;;;1.02;0.65;;;18.80;99.90;;;;;;5035645;28;20135;-77
2022/07/08 10:40:48;;;;;;;6.10;0.93;;;18.70;99.90;;;;;;5043394;28;20052;-76
2022/07/08 10:43:52;;;;;;;1.73;0.75;;;18.70;99.90;;;;;;5062692;28;20048;-77
2022/07/08 10:46:55;;;;;;;1.90;0.57;;;18.80;99.90;;;;;;5047066;28;20045;-77
2022/07/08 10:49:58;;;;;;;1.50;0.52;;;18.80;99.90;;;;;;5030446;28;20917;-77
2022/07/08 10:53:01;;;;;;;1.70;0.65;;;18.90;99.90;;;;;;5017926;28;20370;-78
2022/07/08 10:56:04;;;;;;;1.52;0.70;;;19.00;99.90;;;;;;5042569;28;20045;-76
2022/07/08 10:59:08;;;;;;;2.00;0.68;;;19.10;99.90;;;;;;5042348;28;20231;-77
2022/07/08 11:02:11;;;;;;;1.05;0.55;;;19.20;99.90;;;;;;5037329;28;20045;-77
2022/07/08 11:04:44;;;;;;;2.70;0.60;;;19.20;99.90;;;;;;5029827;28;20088;-76
2022/07/08 11:07:29;;;;;;;2.42;1.00;;;19.30;99.90;;;;;;5046859;28;20069;-76
2022/07/08 11:10:11;;;;;;;3.63;0.73;;;19.50;99.90;;;;;;5044877;28;21488;-76
2022/07/08 11:12:45;;;;;;;1.73;0.65;;;19.50;99.90;;;;;;5042901;28;20041;-75
2022/07/08 11:15:18;;;;;;;3.13;0.60;;;19.60;99.90;;;;;;5025433;28;20044;-74
2022/07/08 11:17:51;;;;;;;3.38;0.70;;;19.60;99.90;;;;;;5050030;28;20045;-76
2022/07/08 11:20:18;;;;;;;1.58;0.70;;;19.70;99.90;;;;;;5048944;28;20068;-76
2022/07/08 11:22:48;;;;;;;3.42;1.00;;;19.70;99.90;;;;;;5033438;28;20049;-77
2022/07/08 11:25:15;;;;;;;1.60;0.88;;;19.80;99.90;;;;;;5051456;28;20375;-76
2022/07/08 11:27:42;;;;;;;2.35;0.77;;;19.80;99.90;;;;;;5050100;28;20619;-76
2022/07/08 11:30:13;;;;;;;0.90;0.60;;;19.90;99.90;;;;;;5048741;28;20049;-78
2022/07/08 11:32:39;;;;;;;1.52;0.70;;;20.10;99.90;;;;;;5049283;28;20485;-77
2022/07/08 11:35:05;;;;;;;1.30;0.68;;;20.20;99.90;;;;;;5029089;28;20041;-78
2022/07/08 11:37:32;;;;;;;1.15;0.55;;;20.20;99.90;;;;;;5017731;28;20086;-78
2022/07/08 11:43:41;;;;;;;3.45;0.75;;;20.30;99.90;;;;;;5048840;28;20098;-69
2022/07/08 11:46:18;;;;;;;1.92;0.75;;;20.40;99.90;;;;;;5048036;28;20577;-70
2022/07/08 11:48:44;;;;;;;1.50;0.70;;;20.50;99.90;;;;;;5050705;28;20035;-76
2022/07/08 11:51:12;;;;;;;2.50;0.60;;;20.40;99.90;;;;;;5050535;28;20115;-70
2022/07/08 11:53:38;;;;;;;1.58;0.65;;;20.30;99.90;;;;;;5049491;28;20705;-75
2022/07/08 11:56:04;;;;;;;1.42;0.68;;;20.30;99.90;;;;;;5049735;28;20037;-76
2022/07/08 11:58:29;;;;;;;3.53;0.60;;;20.30;99.90;;;;;;5049298;28;20109;-76
2022/07/08 12:00:55;;;;;;;1.17;0.60;;;20.40;99.90;;;;;;5048547;28;20505;-77
2022/07/08 12:03:23;;;;;;;1.55;0.80;;;20.40;99.90;;;;;;5048788;28;20037;-76
2022/07/08 12:05:48;;;;;;;2.53;0.90;;;20.60;99.90;;;;;;5046959;28;20041;-78
2022/07/08 12:08:18;;;;;;;1.35;0.60;;;20.60;99.90;;;;;;5046460;28;20539;-76
2022/07/08 12:11:22;;;;;;;2.75;0.80;;;20.60;99.90;;;;;;5030100;28;20075;-77
2022/07/08 12:14:26;;;;;;;1.55;0.85;;;20.60;99.90;;;;;;5030813;28;20041;-76
2022/07/08 12:17:29;;;;;;;3.22;1.00;;;20.50;99.90;;;;;;5046782;28;20119;-77
2022/07/08 12:20:32;;;;;;;1.50;0.70;;;20.60;99.90;;;;;;5043695;28;20444;-78
2022/07/08 12:23:36;;;;;;;0.80;0.60;;;20.70;99.90;;;;;;5037308;28;20501;-77
2022/07/08 12:26:39;;;;;;;1.83;1.05;;;20.80;99.90;;;;;;5040316;28;20041;-77
2022/07/08 12:40:46;;;;;;;1.77;0.80;;;20.60;99.90;;;;;;5047610;28;20147;-78
2022/07/08 12:43:49;;;;;;;2.40;0.85;;;20.60;99.90;;;;;;5036617;28;20034;-77
2022/07/08 12:46:15;;;;;;;1.50;0.75;;;20.70;99.90;;;;;;5027846;28;20251;-77
2022/07/08 12:48:40;;;;;;;3.03;0.82;;;20.70;99.90;;;;;;5046387;28;20345;-78
2022/07/08 12:51:09;;;;;;;2.13;0.77;;;20.80;99.90;;;;;;5060689;28;20040;-78
2022/07/08 12:54:12;;;;;;;2.25;0.70;;;20.90;99.90;;;;;;5047432;28;20029;-81
2022/07/08 12:57:16;;;;;;;2.95;1.10;;;20.90;99.90;;;;;;5064686;28;20071;-81
2022/07/08 13:00:19;;;;;;;1.65;0.80;;;21.00;99.90;;;;;;5030136;28;20422;-81
2022/07/08 13:03:23;;;;;;;1.77;0.88;;;21.00;99.90;;;;;;5063907;28;20526;-72
2022/07/08 13:06:26;;;;;;;3.63;0.80;;;21.10;98.90;;;;;;5028749;28;20044;-78
2022/07/08 13:09:29;;;;;;;1.20;0.75;;;21.10;97.90;;;;;;5029894;28;20068;-77
2022/07/08 13:12:33;;;;;;;1.75;0.68;;;21.00;99.90;;;;;;5044444;28;20422;-77
2022/07/08 13:15:36;;;;;;;1.42;0.73;;;21.00;99.30;;;;;;5046911;28;20588;-77
2022/07/08 13:18:39;;;;;;;3.30;0.82;;;21.00;99.90;;;;;;5046619;28;20045;-77
2022/07/08 13:21:43;;;;;;;1.83;0.85;;;21.00;99.90;;;;;;5043343;28;20534;-77
2022/07/08 13:24:46;;;;;;;1.45;0.82;;;21.10;99.70;;;;;;5059165;28;20037;-77
2022/07/08 13:27:49;;;;;;;1.13;0.70;;;21.20;99.00;;;;;;5060955;28;20037;-77
2022/07/08 13:30:53;;;;;;;1.23;0.70;;;21.20;99.50;;;;;;5046830;28;20033;-78
2022/07/08 13:33:56;;;;;;;1.20;0.88;;;21.20;99.80;;;;;;5045837;28;20049;-77
2022/07/08 13:36:59;;;;;;;1.77;0.80;;;21.30;99.90;;;;;;5043406;28;20635;-77
2022/07/08 13:40:02;;;;;;;3.22;1.10;;;21.50;99.50;;;;;;5047499;28;20049;-77
2022/07/08 13:43:05;;;;;;;1.05;0.63;;;21.50;99.90;;;;;;5040610;28;20049;-77
2022/07/08 13:46:09;;;;;;;1.35;0.90;;;21.60;99.90;;;;;;5040813;28;20545;-77
2022/07/08 13:49:12;;;;;;;1.08;0.63;;;21.60;99.30;;;;;;5031807;28;20474;-77
2022/07/08 13:52:15;;;;;;;1.40;0.70;;;21.40;99.90;;;;;;5046609;28;20083;-77
2022/07/08 13:55:19;;;;;;;2.15;1.00;;;21.30;99.90;;;;;;5053361;28;20132;-78
2022/07/08 13:58:23;;;;;;;1.90;0.82;;;21.30;99.90;;;;;;5045662;28;20099;-78
2022/07/08 14:01:28;;;;;;;1.50;0.82;;;21.30;99.90;;;;;;5050476;28;20537;-80
2022/07/08 14:04:31;;;;;;;1.55;0.73;;;21.40;99.90;;;;;;5046301;28;20048;-79
2022/07/08 14:07:34;;;;;;;1.77;0.70;;;21.50;99.90;;;;;;5044914;28;20036;-78
2022/07/08 14:10:38;;;;;;;2.72;0.95;;;21.40;99.90;;;;;;5029908;28;20095;-78
2022/07/08 14:13:41;;;;;;;1.58;0.73;;;21.40;99.90;;;;;;5043933;28;20041;-78
2022/07/08 14:16:44;;;;;;;1.80;0.70;;;21.30;99.90;;;;;;5044274;28;20123;-79
2022/07/08 14:19:47;;;;;;;1.30;0.70;;;21.30;99.90;;;;;;5045774;28;20041;-79
2022/07/08 14:22:51;;;;;;;2.13;0.93;;;21.30;99.90;;;;;;5044173;28;20076;-77
2022/07/08 14:25:54;;;;;;;2.60;0.80;;;21.40;99.90;;;;;;5027592;28;20037;-77
2022/07/08 14:28:57;;;;;;;1.95;1.00;;;21.50;99.90;;;;;;5042523;28;20041;-71
2022/07/08 14:32:03;;;;;;;1.05;0.80;;;21.70;99.90;;;;;;5060077;28;20191;-78
2022/07/08 14:35:06;;;;;;;1.83;1.17;;;21.70;99.90;;;;;;5043903;28;20501;-78
2022/07/08 14:38:09;;;;;;;1.70;0.90;;;21.70;99.90;;;;;;5043051;28;20034;-78
2022/07/08 14:41:12;;;;;;;2.85;0.98;;;21.50;99.50;;;;;;5043139;28;20067;-78
2022/07/08 14:44:16;;;;;;;3.28;1.17;;;21.50;99.90;;;;;;5044205;28;20041;-77
2022/07/08 14:47:19;;;;;;;1.63;1.20;;;21.50;99.90;;;;;;5044294;28;20838;-77
2022/07/08 14:50:24;;;;;;;3.20;0.70;;;21.40;99.90;;;;;;5046496;28;20447;-77
2022/07/08 14:53:27;;;;;;;1.65;0.77;;;21.50;99.90;;;;;;5044387;28;20559;-77
2022/07/08 14:56:31;;;;;;;1.40;0.60;;;21.50;99.90;;;;;;5041840;28;20037;-77
2022/07/08 14:59:34;;;;;;;1.45;0.90;;;21.50;99.90;;;;;;5046158;28;20045;-77
2022/07/08 15:02:37;;;;;;;0.98;0.77;;;21.60;99.90;;;;;;5045629;28;20059;-77
2022/07/08 15:05:41;;;;;;;1.25;0.65;;;21.50;99.90;;;;;;5043437;28;21309;-77
2022/07/08 15:08:11;;;;;;;2.65;0.90;;;21.50;99.90;;;;;;5045850;28;20064;-76
2022/07/08 15:10:36;;;;;;;1.58;0.60;;;21.50;99.90;;;;;;5042096;28;20507;-77
2022/07/08 15:13:02;;;;;;;1.77;0.70;;;21.50;99.90;;;;;;5028046;28;20053;-77
2022/07/08 15:15:28;;;;;;;2.38;0.82;;;21.60;99.90;;;;;;5046094;28;20102;-77
2022/07/08 15:17:59;;;;;;;4.15;0.65;;;21.70;99.90;;;;;;5028602;28;20405;-77
2022/07/08 15:20:25;;;;;;;1.30;0.57;;;21.70;99.90;;;;;;5045164;28;20623;-77
2022/07/08 15:22:50;;;;;;;2.90;0.88;;;21.70;99.90;;;;;;5028097;28;20326;-77
2022/07/08 15:25:16;;;;;;;3.05;0.70;;;21.70;99.90;;;;;;5046517;28;20072;-77
2022/07/08 15:27:42;;;;;;;1.45;0.77;;;21.70;99.90;;;;;;5025564;28;20426;-77
2022/07/08 15:30:09;;;;;;;3.17;1.08;;;21.80;99.90;;;;;;5044486;28;20041;-77